sensor_id;sensor_type;location;lat;lon;timestamp;pressure;altitude;pressure_sealevel;temperature;humidity
37764;BME280;23602;51.084;7.090;2022-10-16T00:00:44;99942.41;;;12.43;100.00
37764;BME280;23602;51.084;7.090;2022-10-16T00:03:10;99934.91;;;12.45;100.00
37764;BME280;23602;51.084;7.090;2022-10-16T00:05:43;99935.94;;;12.44;100.00
37764;BME280;23602;51.084;7.090;2022-10-16T00:08:11;99917.19;;;12.37;100.00
37764;BME280;23602;51.084;7.090;2022-10-16T00:10:37;99934.78;;;12.40;100.00
37764;BME280;23602;51.084;7.090;2022-10-16T00:13:03;99931.34;;;12.33;100.00
37764;BME280;23602;51.084;7.090;2022-10-16T00:15:30;99940.22;;;12.33;100.00
37764;BME280;23602;51.084;7.090;2022-10-16T00:17:55;99927.88;;;12.26;100.00
37764;BME280;23602;51.084;7.090;2022-10-16T00:20:21;99944.81;;;12.33;100.00
37764;BME280;23602;51.084;7.090;2022-10-16T00:22:47;99951.25;;;12.32;100.00
37764;BME280;23602;51.084;7.090;2022-10-16T00:25:16;99952.50;;;12.29;100.00
37764;BME280;23602;51.084;7.090;2022-10-16T00:27:42;99955.06;;;12.24;100.00
37764;BME280;23602;51.084;7.090;2022-10-16T00:30:08;99969.06;;;12.33;100.00
37764;BME280;23602;51.084;7.090;2022-10-16T00:32:34;99958.19;;;12.21;100.00
37764;BME280;23602;51.084;7.090;2022-10-16T00:35:00;99948.09;;;12.17;100.00
37764;BME280;23602;51.084;7.090;2022-10-16T00:37:29;99946.44;;;12.16;100.00
37764;BME280;23602;51.084;7.090;2022-10-16T00:39:55;99945.25;;;12.12;100.00
37764;BME280;23602;51.084;7.090;2022-10-16T00:42:22;99964.25;;;12.17;100.00
37764;BME280;23602;51.084;7.090;2022-10-16T00:44:55;99960.97;;;12.15;100.00
37764;BME280;23602;51.084;7.090;2022-10-16T00:47:29;99959.16;;;12.09;100.00
37764;BME280;23602;51.084;7.090;2022-10-16T00:50:04;99954.00;;;12.07;100.00
37764;BME280;23602;51.084;7.090;2022-10-16T00:52:32;99940.53;;;11.89;100.00
37764;BME280;23602;51.084;7.090;2022-10-16T00:54:58;99946.75;;;11.89;100.00
37764;BME280;23602;51.084;7.090;2022-10-16T00:57:24;99938.50;;;11.84;100.00
37764;BME280;23602;51.084;7.090;2022-10-16T00:59:51;99949.59;;;11.94;100.00
37764;BME280;23602;51.084;7.090;2022-10-16T01:02:17;99939.31;;;11.85;100.00
37764;BME280;23602;51.084;7.090;2022-10-16T01:04:51;99932.50;;;11.82;100.00
37764;BME280;23602;51.084;7.090;2022-10-16T01:12:55;99954.66;;;11.84;100.00
37764;BME280;23602;51.084;7.090;2022-10-16T01:15:30;99960.94;;;11.78;100.00
37764;BME280;23602;51.084;7.090;2022-10-16T01:20:30;99941.16;;;11.66;100.00
37764;BME280;23602;51.084;7.090;2022-10-16T01:25:35;99954.38;;;11.68;100.00
37764;BME280;23602;51.084;7.090;2022-10-16T01:28:04;99972.56;;;11.72;100.00
37764;BME280;23602;51.084;7.090;2022-10-16T01:30:32;99957.50;;;11.65;100.00
37764;BME280;23602;51.084;7.090;2022-10-16T01:33:17;99968.25;;;11.71;100.00
37764;BME280;23602;51.084;7.090;2022-10-16T01:35:51;99957.47;;;11.71;100.00
37764;BME280;23602;51.084;7.090;2022-10-16T01:38:36;99967.66;;;11.69;100.00
37764;BME280;23602;51.084;7.090;2022-10-16T01:41:19;99944.50;;;11.62;100.00
37764;BME280;23602;51.084;7.090;2022-10-16T01:43:54;99943.25;;;11.64;100.00
37764;BME280;23602;51.084;7.090;2022-10-16T01:46:22;99952.78;;;11.60;100.00
37764;BME280;23602;51.084;7.090;2022-10-16T01:48:50;99969.09;;;11.65;100.00
37764;BME280;23602;51.084;7.090;2022-10-16T01:51:17;99970.16;;;11.64;100.00
37764;BME280;23602;51.084;7.090;2022-10-16T01:53:48;99957.72;;;11.63;100.00
37764;BME280;23602;51.084;7.090;2022-10-16T01:56:15;99972.63;;;11.66;100.00
37764;BME280;23602;51.084;7.090;2022-10-16T01:58:47;99973.88;;;11.63;100.00
37764;BME280;23602;51.084;7.090;2022-10-16T02:01:16;99983.16;;;11.67;100.00
37764;BME280;23602;51.084;7.090;2022-10-16T02:03:44;99977.59;;;11.69;100.00
37764;BME280;23602;51.084;7.090;2022-10-16T02:06:12;99996.31;;;11.82;100.00
37764;BME280;23602;51.084;7.090;2022-10-16T02:08:37;100005.19;;;11.82;100.00
37764;BME280;23602;51.084;7.090;2022-10-16T02:11:04;99992.56;;;11.83;100.00
37764;BME280;23602;51.084;7.090;2022-10-16T02:14:03;99998.53;;;11.85;100.00
37764;BME280;23602;51.084;7.090;2022-10-16T02:16:35;99984.72;;;11.81;100.00
37764;BME280;23602;51.084;7.090;2022-10-16T02:19:02;99991.13;;;11.80;100.00
37764;BME280;23602;51.084;7.090;2022-10-16T02:21:44;100003.38;;;12.01;100.00
37764;BME280;23602;51.084;7.090;2022-10-16T02:27:53;100002.06;;;11.85;100.00
37764;BME280;23602;51.084;7.090;2022-10-16T02:30:25;100013.84;;;11.91;100.00
37764;BME280;23602;51.084;7.090;2022-10-16T02:32:53;100020.22;;;11.96;100.00
37764;BME280;23602;51.084;7.090;2022-10-16T02:35:21;100004.72;;;11.92;100.00
37764;BME280;23602;51.084;7.090;2022-10-16T02:37:51;100013.56;;;11.99;100.00
37764;BME280;23602;51.084;7.090;2022-10-16T02:40:18;100023.59;;;12.10;100.00
37764;BME280;23602;51.084;7.090;2022-10-16T02:42:44;100013.91;;;12.02;100.00
37764;BME280;23602;51.084;7.090;2022-10-16T02:45:10;100010.63;;;12.00;100.00
37764;BME280;23602;51.084;7.090;2022-10-16T02:47:36;100006.22;;;12.06;100.00
37764;BME280;23602;51.084;7.090;2022-10-16T02:50:02;100000.44;;;12.02;100.00
37764;BME280;23602;51.084;7.090;2022-10-16T02:52:30;100007.06;;;12.07;100.00
37764;BME280;23602;51.084;7.090;2022-10-16T02:54:55;100015.28;;;12.12;100.00
37764;BME280;23602;51.084;7.090;2022-10-16T02:57:21;99997.94;;;12.08;100.00
37764;BME280;23602;51.084;7.090;2022-10-16T02:59:46;100000.84;;;12.06;100.00
37764;BME280;23602;51.084;7.090;2022-10-16T03:02:11;100021.13;;;12.09;100.00
37764;BME280;23602;51.084;7.090;2022-10-16T03:04:37;100009.19;;;11.98;100.00
37764;BME280;23602;51.084;7.090;2022-10-16T03:07:03;100025.94;;;12.25;100.00
37764;BME280;23602;51.084;7.090;2022-10-16T03:09:28;100011.25;;;12.21;100.00
37764;BME280;23602;51.084;7.090;2022-10-16T03:11:54;100016.66;;;12.39;100.00
37764;BME280;23602;51.084;7.090;2022-10-16T03:14:19;100001.41;;;12.33;100.00
37764;BME280;23602;51.084;7.090;2022-10-16T03:16:44;99973.31;;;12.40;100.00
37764;BME280;23602;51.084;7.090;2022-10-16T03:19:10;99961.34;;;12.36;100.00
37764;BME280;23602;51.084;7.090;2022-10-16T03:21:35;99952.28;;;12.31;100.00
37764;BME280;23602;51.084;7.090;2022-10-16T03:24:01;99923.84;;;12.35;100.00
37764;BME280;23602;51.084;7.090;2022-10-16T03:26:26;99921.59;;;12.32;100.00
37764;BME280;23602;51.084;7.090;2022-10-16T03:28:52;99910.78;;;12.20;100.00
37764;BME280;23602;51.084;7.090;2022-10-16T03:31:17;99906.03;;;12.16;100.00
37764;BME280;23602;51.084;7.090;2022-10-16T03:33:43;99906.41;;;12.19;100.00
37764;BME280;23602;51.084;7.090;2022-10-16T03:36:08;99915.03;;;12.10;100.00
37764;BME280;23602;51.084;7.090;2022-10-16T03:38:34;99923.81;;;12.05;100.00
37764;BME280;23602;51.084;7.090;2022-10-16T03:40:59;99925.94;;;11.96;100.00
37764;BME280;23602;51.084;7.090;2022-10-16T03:43:27;99940.56;;;12.07;100.00
37764;BME280;23602;51.084;7.090;2022-10-16T03:45:55;99930.50;;;11.96;100.00
37764;BME280;23602;51.084;7.090;2022-10-16T03:48:21;99937.16;;;11.93;100.00
37764;BME280;23602;51.084;7.090;2022-10-16T03:50:46;99951.22;;;11.95;100.00
37764;BME280;23602;51.084;7.090;2022-10-16T03:53:14;99946.06;;;11.94;100.00
37764;BME280;23602;51.084;7.090;2022-10-16T03:55:41;99938.13;;;11.81;100.00
37764;BME280;23602;51.084;7.090;2022-10-16T03:58:07;99948.50;;;11.77;100.00
37764;BME280;23602;51.084;7.090;2022-10-16T04:00:33;99979.84;;;11.90;100.00
37764;BME280;23602;51.084;7.090;2022-10-16T04:02:59;99983.66;;;11.82;100.00
37764;BME280;23602;51.084;7.090;2022-10-16T04:05:24;99985.56;;;11.82;100.00
37764;BME280;23602;51.084;7.090;2022-10-16T04:07:50;100012.59;;;12.12;100.00
37764;BME280;23602;51.084;7.090;2022-10-16T04:10:15;100004.06;;;12.15;100.00
37764;BME280;23602;51.084;7.090;2022-10-16T04:12:41;99988.22;;;12.25;100.00
37764;BME280;23602;51.084;7.090;2022-10-16T04:15:06;99987.31;;;12.13;100.00
37764;BME280;23602;51.084;7.090;2022-10-16T04:17:32;99991.06;;;12.12;100.00
37764;BME280;23602;51.084;7.090;2022-10-16T04:19:57;100003.94;;;12.10;100.00
37764;BME280;23602;51.084;7.090;2022-10-16T04:22:25;99998.38;;;12.04;100.00
37764;BME280;23602;51.084;7.090;2022-10-16T04:24:51;100006.38;;;12.11;100.00
37764;BME280;23602;51.084;7.090;2022-10-16T04:27:16;100000.84;;;12.06;100.00
37764;BME280;23602;51.084;7.090;2022-10-16T04:29:44;100007.53;;;12.22;100.00
37764;BME280;23602;51.084;7.090;2022-10-16T04:32:09;100018.97;;;12.17;100.00
37764;BME280;23602;51.084;7.090;2022-10-16T04:34:35;100020.84;;;12.17;100.00
37764;BME280;23602;51.084;7.090;2022-10-16T04:37:00;100024.81;;;12.14;100.00
37764;BME280;23602;51.084;7.090;2022-10-16T04:39:26;100034.47;;;12.22;100.00
37764;BME280;23602;51.084;7.090;2022-10-16T04:41:51;100029.34;;;12.14;100.00
37764;BME280;23602;51.084;7.090;2022-10-16T04:44:27;100011.84;;;12.04;100.00
37764;BME280;23602;51.084;7.090;2022-10-16T04:46:52;100005.34;;;12.12;100.00
37764;BME280;23602;51.084;7.090;2022-10-16T04:49:17;100005.34;;;12.12;100.00
37764;BME280;23602;51.084;7.090;2022-10-16T04:51:43;100004.44;;;12.18;100.00
37764;BME280;23602;51.084;7.090;2022-10-16T04:54:09;99999.84;;;12.00;100.00
37764;BME280;23602;51.084;7.090;2022-10-16T04:56:34;99995.44;;;12.06;100.00
37764;BME280;23602;51.084;7.090;2022-10-16T04:59:05;100010.03;;;11.98;100.00
37764;BME280;23602;51.084;7.090;2022-10-16T05:01:31;100005.81;;;11.84;100.00
37764;BME280;23602;51.084;7.090;2022-10-16T05:03:58;100018.06;;;11.80;100.00
37764;BME280;23602;51.084;7.090;2022-10-16T05:06:23;100037.03;;;11.92;100.00
37764;BME280;23602;51.084;7.090;2022-10-16T05:08:49;100013.50;;;11.81;100.00
37764;BME280;23602;51.084;7.090;2022-10-16T05:11:14;100021.16;;;11.84;100.00
37764;BME280;23602;51.084;7.090;2022-10-16T05:13:40;100017.22;;;11.80;100.00
37764;BME280;23602;51.084;7.090;2022-10-16T05:16:05;100041.78;;;11.90;100.00
37764;BME280;23602;51.084;7.090;2022-10-16T05:18:31;100041.69;;;11.78;100.00
37764;BME280;23602;51.084;7.090;2022-10-16T05:20:56;100034.97;;;11.87;100.00
37764;BME280;23602;51.084;7.090;2022-10-16T05:23:22;100055.72;;;11.87;100.00
37764;BME280;23602;51.084;7.090;2022-10-16T05:25:55;100048.78;;;11.73;100.00
37764;BME280;23602;51.084;7.090;2022-10-16T05:28:26;100048.78;;;11.73;100.00
37764;BME280;23602;51.084;7.090;2022-10-16T05:30:52;100052.13;;;11.68;100.00
37764;BME280;23602;51.084;7.090;2022-10-16T05:33:20;100055.66;;;11.69;100.00
37764;BME280;23602;51.084;7.090;2022-10-16T05:35:46;100057.69;;;11.73;100.00
37764;BME280;23602;51.084;7.090;2022-10-16T05:38:12;100050.94;;;11.58;100.00
37764;BME280;23602;51.084;7.090;2022-10-16T05:40:37;100066.25;;;11.57;100.00
37764;BME280;23602;51.084;7.090;2022-10-16T05:43:03;100073.88;;;11.67;100.00
37764;BME280;23602;51.084;7.090;2022-10-16T05:45:28;100070.19;;;11.61;100.00
37764;BME280;23602;51.084;7.090;2022-10-16T05:47:54;100074.97;;;11.59;100.00
37764;BME280;23602;51.084;7.090;2022-10-16T05:50:20;100090.22;;;11.65;100.00
37764;BME280;23602;51.084;7.090;2022-10-16T05:52:45;100090.66;;;11.69;100.00
37764;BME280;23602;51.084;7.090;2022-10-16T05:55:11;100100.59;;;11.68;100.00
37764;BME280;23602;51.084;7.090;2022-10-16T05:57:39;100100.59;;;11.68;100.00
37764;BME280;23602;51.084;7.090;2022-10-16T06:00:05;100097.91;;;11.62;100.00
37764;BME280;23602;51.084;7.090;2022-10-16T06:02:31;100130.81;;;11.70;100.00
37764;BME280;23602;51.084;7.090;2022-10-16T06:04:56;100128.13;;;11.64;100.00
37764;BME280;23602;51.084;7.090;2022-10-16T06:07:22;100126.47;;;11.69;100.00
37764;BME280;23602;51.084;7.090;2022-10-16T06:09:51;100127.53;;;11.62;100.00
37764;BME280;23602;51.084;7.090;2022-10-16T06:12:17;100135.81;;;11.60;100.00
37764;BME280;23602;51.084;7.090;2022-10-16T06:14:44;100130.03;;;11.57;100.00
37764;BME280;23602;51.084;7.090;2022-10-16T06:17:10;100150.69;;;11.63;100.00
37764;BME280;23602;51.084;7.090;2022-10-16T06:19:36;100156.13;;;11.56;100.00
37764;BME280;23602;51.084;7.090;2022-10-16T06:22:01;100148.72;;;11.52;100.00
37764;BME280;23602;51.084;7.090;2022-10-16T06:24:29;100158.81;;;11.56;100.00
37764;BME280;23602;51.084;7.090;2022-10-16T06:26:54;100164.38;;;11.61;100.00
37764;BME280;23602;51.084;7.090;2022-10-16T06:29:20;100165.59;;;11.65;100.00
37764;BME280;23602;51.084;7.090;2022-10-16T06:31:46;100177.16;;;11.72;100.00
37764;BME280;23602;51.084;7.090;2022-10-16T06:34:12;100161.63;;;11.68;100.00
37764;BME280;23602;51.084;7.090;2022-10-16T06:36:44;100151.75;;;11.62;100.00
37764;BME280;23602;51.084;7.090;2022-10-16T06:39:10;100162.84;;;11.78;100.00
37764;BME280;23602;51.084;7.090;2022-10-16T06:41:37;100175.06;;;11.81;100.00
37764;BME280;23602;51.084;7.090;2022-10-16T06:44:06;100182.78;;;12.02;100.00
37764;BME280;23602;51.084;7.090;2022-10-16T06:46:33;100184.66;;;12.01;100.00
37764;BME280;23602;51.084;7.090;2022-10-16T06:48:59;100199.75;;;12.02;100.00
37764;BME280;23602;51.084;7.090;2022-10-16T06:51:24;100202.25;;;12.04;100.00
37764;BME280;23602;51.084;7.090;2022-10-16T06:53:52;100193.06;;;12.12;100.00
37764;BME280;23602;51.084;7.090;2022-10-16T06:56:22;100229.38;;;12.34;100.00
37764;BME280;23602;51.084;7.090;2022-10-16T06:58:49;100205.72;;;12.36;100.00
37764;BME280;23602;51.084;7.090;2022-10-16T07:01:17;100219.31;;;12.72;100.00
37764;BME280;23602;51.084;7.090;2022-10-16T07:03:44;100196.41;;;12.63;100.00
37764;BME280;23602;51.084;7.090;2022-10-16T07:06:12;100198.81;;;12.71;100.00
37764;BME280;23602;51.084;7.090;2022-10-16T07:08:41;100205.63;;;12.74;100.00
37764;BME280;23602;51.084;7.090;2022-10-16T07:11:09;100203.47;;;12.82;100.00
37764;BME280;23602;51.084;7.090;2022-10-16T07:13:37;100203.47;;;12.82;100.00
37764;BME280;23602;51.084;7.090;2022-10-16T07:16:23;100211.13;;;13.03;100.00
37764;BME280;23602;51.084;7.090;2022-10-16T07:18:53;100200.25;;;12.92;100.00
37764;BME280;23602;51.084;7.090;2022-10-16T07:21:27;100190.97;;;13.06;100.00
37764;BME280;23602;51.084;7.090;2022-10-16T07:23:58;100198.88;;;13.07;100.00
37764;BME280;23602;51.084;7.090;2022-10-16T07:26:25;100201.25;;;13.15;100.00
37764;BME280;23602;51.084;7.090;2022-10-16T07:28:53;100202.44;;;13.38;100.00
37764;BME280;23602;51.084;7.090;2022-10-16T07:31:20;100188.50;;;13.41;100.00
37764;BME280;23602;51.084;7.090;2022-10-16T07:33:47;100203.81;;;13.47;100.00
37764;BME280;23602;51.084;7.090;2022-10-16T07:36:15;100212.25;;;13.50;100.00
37764;BME280;23602;51.084;7.090;2022-10-16T07:38:41;100194.63;;;13.48;100.00
37764;BME280;23602;51.084;7.090;2022-10-16T07:41:10;100188.06;;;13.44;100.00
37764;BME280;23602;51.084;7.090;2022-10-16T07:43:36;100203.44;;;13.43;100.00
37764;BME280;23602;51.084;7.090;2022-10-16T07:46:01;100207.09;;;13.49;100.00
37764;BME280;23602;51.084;7.090;2022-10-16T07:48:28;100200.00;;;13.36;100.00
37764;BME280;23602;51.084;7.090;2022-10-16T07:51:03;100201.56;;;13.25;100.00
37764;BME280;23602;51.084;7.090;2022-10-16T07:53:28;100208.03;;;13.24;100.00
37764;BME280;23602;51.084;7.090;2022-10-16T07:56:02;100204.84;;;13.27;100.00
37764;BME280;23602;51.084;7.090;2022-10-16T07:58:29;100201.94;;;13.11;100.00
37764;BME280;23602;51.084;7.090;2022-10-16T08:00:56;100223.16;;;13.07;100.00
37764;BME280;23602;51.084;7.090;2022-10-16T08:03:23;100232.56;;;12.98;100.00
37764;BME280;23602;51.084;7.090;2022-10-16T08:05:49;100235.53;;;12.90;100.00
37764;BME280;23602;51.084;7.090;2022-10-16T08:08:16;100235.16;;;12.87;100.00
37764;BME280;23602;51.084;7.090;2022-10-16T08:10:42;100235.44;;;12.79;100.00
37764;BME280;23602;51.084;7.090;2022-10-16T08:13:07;100246.00;;;12.80;100.00
37764;BME280;23602;51.084;7.090;2022-10-16T08:15:33;100252.63;;;13.02;100.00
37764;BME280;23602;51.084;7.090;2022-10-16T08:18:04;100242.97;;;13.19;100.00
37764;BME280;23602;51.084;7.090;2022-10-16T08:20:30;100248.97;;;13.21;100.00
37764;BME280;23602;51.084;7.090;2022-10-16T08:22:56;100251.41;;;13.23;100.00
37764;BME280;23602;51.084;7.090;2022-10-16T08:25:23;100237.56;;;13.19;100.00
37764;BME280;23602;51.084;7.090;2022-10-16T08:27:49;100248.66;;;13.29;100.00
37764;BME280;23602;51.084;7.090;2022-10-16T08:30:16;100267.91;;;13.33;100.00
37764;BME280;23602;51.084;7.090;2022-10-16T08:32:48;100261.38;;;13.22;100.00
37764;BME280;23602;51.084;7.090;2022-10-16T08:35:14;100265.16;;;13.21;100.00
37764;BME280;23602;51.084;7.090;2022-10-16T08:37:44;100281.06;;;13.29;100.00
37764;BME280;23602;51.084;7.090;2022-10-16T08:40:20;100275.84;;;13.28;100.00
37764;BME280;23602;51.084;7.090;2022-10-16T08:49:00;100295.28;;;13.37;100.00
37764;BME280;23602;51.084;7.090;2022-10-16T08:51:34;100298.75;;;13.62;100.00
37764;BME280;23602;51.084;7.090;2022-10-16T08:54:37;100307.34;;;13.70;100.00
37764;BME280;23602;51.084;7.090;2022-10-16T08:57:20;100307.81;;;13.67;100.00
37764;BME280;23602;51.084;7.090;2022-10-16T08:59:46;100309.00;;;13.71;100.00
37764;BME280;23602;51.084;7.090;2022-10-16T09:02:24;100317.84;;;13.78;100.00
37764;BME280;23602;51.084;7.090;2022-10-16T09:11:03;100280.59;;;13.99;100.00
37764;BME280;23602;51.084;7.090;2022-10-16T09:14:23;100270.06;;;14.09;100.00
37764;BME280;23602;51.084;7.090;2022-10-16T09:19:46;100237.19;;;14.12;100.00
37764;BME280;23602;51.084;7.090;2022-10-16T09:22:16;100249.41;;;14.14;100.00
37764;BME280;23602;51.084;7.090;2022-10-16T09:24:42;100257.66;;;14.19;100.00
37764;BME280;23602;51.084;7.090;2022-10-16T09:27:11;100241.38;;;14.26;100.00
37764;BME280;23602;51.084;7.090;2022-10-16T09:29:37;100231.84;;;14.23;100.00
37764;BME280;23602;51.084;7.090;2022-10-16T09:32:14;100257.41;;;14.39;100.00
37764;BME280;23602;51.084;7.090;2022-10-16T09:34:45;100256.66;;;14.32;100.00
37764;BME280;23602;51.084;7.090;2022-10-16T09:37:19;100256.66;;;14.32;100.00
37764;BME280;23602;51.084;7.090;2022-10-16T09:39:52;100250.06;;;14.28;100.00
37764;BME280;23602;51.084;7.090;2022-10-16T09:42:20;100270.69;;;14.40;100.00
37764;BME280;23602;51.084;7.090;2022-10-16T09:44:56;100259.16;;;14.33;100.00
37764;BME280;23602;51.084;7.090;2022-10-16T09:47:31;100274.34;;;14.46;100.00
37764;BME280;23602;51.084;7.090;2022-10-16T09:50:28;100252.28;;;14.49;100.00
37764;BME280;23602;51.084;7.090;2022-10-16T09:53:04;100260.06;;;14.69;100.00
37764;BME280;23602;51.084;7.090;2022-10-16T09:55:32;100236.03;;;14.61;100.00
37764;BME280;23602;51.084;7.090;2022-10-16T09:57:58;100248.28;;;14.75;100.00
37764;BME280;23602;51.084;7.090;2022-10-16T10:00:24;100247.94;;;14.71;100.00
37764;BME280;23602;51.084;7.090;2022-10-16T10:02:50;100240.41;;;14.85;100.00
37764;BME280;23602;51.084;7.090;2022-10-16T10:05:22;100247.47;;;14.86;100.00
37764;BME280;23602;51.084;7.090;2022-10-16T10:07:58;100251.13;;;14.91;100.00
37764;BME280;23602;51.084;7.090;2022-10-16T10:10:28;100251.63;;;15.00;100.00
37764;BME280;23602;51.084;7.090;2022-10-16T10:12:55;100224.53;;;15.00;100.00
37764;BME280;23602;51.084;7.090;2022-10-16T10:15:24;100232.28;;;15.08;100.00
37764;BME280;23602;51.084;7.090;2022-10-16T10:17:57;100245.56;;;15.21;100.00
37764;BME280;23602;51.084;7.090;2022-10-16T10:22:51;100164.56;;;15.31;100.00
37764;BME280;23602;51.084;7.090;2022-10-16T10:25:23;100143.84;;;15.48;100.00
37764;BME280;23602;51.084;7.090;2022-10-16T10:33:53;100168.69;;;15.34;100.00
37764;BME280;23602;51.084;7.090;2022-10-16T10:36:39;100148.41;;;15.36;100.00
37764;BME280;23602;51.084;7.090;2022-10-16T10:39:20;100134.97;;;15.41;100.00
37764;BME280;23602;51.084;7.090;2022-10-16T10:42:14;100149.00;;;15.38;100.00
37764;BME280;23602;51.084;7.090;2022-10-16T10:45:02;100134.41;;;15.39;100.00
37764;BME280;23602;51.084;7.090;2022-10-16T10:47:46;100175.03;;;15.39;100.00
37764;BME280;23602;51.084;7.090;2022-10-16T10:50:21;100167.38;;;15.48;100.00
37764;BME280;23602;51.084;7.090;2022-10-16T10:53:18;100156.75;;;15.58;100.00
37764;BME280;23602;51.084;7.090;2022-10-16T10:55:54;100149.94;;;15.55;100.00
37764;BME280;23602;51.084;7.090;2022-10-16T11:01:17;100174.69;;;15.47;100.00
37764;BME280;23602;51.084;7.090;2022-10-16T11:06:20;100149.84;;;15.78;100.00
37764;BME280;23602;51.084;7.090;2022-10-16T11:08:53;100145.66;;;15.88;100.00
37764;BME280;23602;51.084;7.090;2022-10-16T11:11:27;100111.72;;;16.02;100.00
37764;BME280;23602;51.084;7.090;2022-10-16T11:14:13;100131.47;;;16.14;100.00
37764;BME280;23602;51.084;7.090;2022-10-16T11:16:53;100149.72;;;16.18;100.00
37764;BME280;23602;51.084;7.090;2022-10-16T11:22:21;100148.72;;;16.41;100.00
37764;BME280;23602;51.084;7.090;2022-10-16T11:24:58;100110.19;;;16.39;100.00
37764;BME280;23602;51.084;7.090;2022-10-16T11:27:36;100111.56;;;16.41;100.00
37764;BME280;23602;51.084;7.090;2022-10-16T11:30:06;100110.06;;;16.51;100.00
37764;BME280;23602;51.084;7.090;2022-10-16T11:35:55;100120.53;;;16.42;100.00
37764;BME280;23602;51.084;7.090;2022-10-16T11:39:00;100124.22;;;16.36;100.00
37764;BME280;23602;51.084;7.090;2022-10-16T11:41:51;100129.16;;;16.22;100.00
37764;BME280;23602;51.084;7.090;2022-10-16T11:44:38;100139.38;;;16.32;100.00
37764;BME280;23602;51.084;7.090;2022-10-16T11:49:53;100142.97;;;16.21;100.00
37764;BME280;23602;51.084;7.090;2022-10-16T11:52:40;100175.69;;;16.14;100.00
37764;BME280;23602;51.084;7.090;2022-10-16T11:55:21;100185.91;;;16.12;100.00
37764;BME280;23602;51.084;7.090;2022-10-16T11:57:54;100217.06;;;16.10;100.00
37764;BME280;23602;51.084;7.090;2022-10-16T12:01:10;100216.97;;;16.05;100.00
37764;BME280;23602;51.084;7.090;2022-10-16T12:03:35;100219.19;;;16.08;100.00
37764;BME280;23602;51.084;7.090;2022-10-16T12:06:31;100223.47;;;16.04;100.00
37764;BME280;23602;51.084;7.090;2022-10-16T12:09:00;100231.25;;;16.00;100.00
37764;BME280;23602;51.084;7.090;2022-10-16T12:19:20;100243.47;;;15.86;100.00
37764;BME280;23602;51.084;7.090;2022-10-16T12:21:46;100254.78;;;15.83;100.00
37764;BME280;23602;51.084;7.090;2022-10-16T12:24:52;100255.84;;;15.82;100.00
37764;BME280;23602;51.084;7.090;2022-10-16T12:27:32;100256.41;;;15.84;100.00
37764;BME280;23602;51.084;7.090;2022-10-16T12:30:03;100258.06;;;15.85;100.00
37764;BME280;23602;51.084;7.090;2022-10-16T12:32:37;100275.34;;;15.96;100.00
37764;BME280;23602;51.084;7.090;2022-10-16T12:35:19;100276.50;;;16.00;100.00
37764;BME280;23602;51.084;7.090;2022-10-16T12:37:46;100146.41;;;16.33;100.00
37764;BME280;23602;51.084;7.090;2022-10-16T12:40:22;100135.56;;;16.33;100.00
37764;BME280;23602;51.084;7.090;2022-10-16T12:42:50;100166.06;;;16.40;100.00
37764;BME280;23602;51.084;7.090;2022-10-16T12:45:42;100183.06;;;16.19;100.00
37764;BME280;23602;51.084;7.090;2022-10-16T12:48:20;100206.09;;;16.33;100.00
37764;BME280;23602;51.084;7.090;2022-10-16T12:50:45;100204.84;;;16.24;100.00
37764;BME280;23602;51.084;7.090;2022-10-16T12:53:22;100206.25;;;16.43;100.00
37764;BME280;23602;51.084;7.090;2022-10-16T12:58:57;100120.28;;;17.20;100.00
37764;BME280;23602;51.084;7.090;2022-10-16T13:01:37;100142.34;;;17.24;100.00
37764;BME280;23602;51.084;7.090;2022-10-16T13:04:18;100143.91;;;17.20;100.00
37764;BME280;23602;51.084;7.090;2022-10-16T13:09:44;100109.53;;;17.08;100.00
37764;BME280;23602;51.084;7.090;2022-10-16T13:18:04;100117.91;;;17.24;100.00
37764;BME280;23602;51.084;7.090;2022-10-16T13:23:46;100140.19;;;17.26;100.00
37764;BME280;23602;51.084;7.090;2022-10-16T13:26:28;100176.34;;;17.10;100.00
37764;BME280;23602;51.084;7.090;2022-10-16T13:29:00;100191.31;;;16.90;100.00
37764;BME280;23602;51.084;7.090;2022-10-16T13:31:28;100193.47;;;16.72;100.00
37764;BME280;23602;51.084;7.090;2022-10-16T13:33:56;100203.31;;;16.61;100.00
37764;BME280;23602;51.084;7.090;2022-10-16T13:36:29;100185.91;;;16.57;100.00
37764;BME280;23602;51.084;7.090;2022-10-16T13:41:36;100125.63;;;16.93;100.00
37764;BME280;23602;51.084;7.090;2022-10-16T13:44:02;100156.66;;;16.81;100.00
37764;BME280;23602;51.084;7.090;2022-10-16T13:46:29;100117.31;;;17.22;100.00
37764;BME280;23602;51.084;7.090;2022-10-16T13:49:05;100148.63;;;17.08;100.00
37764;BME280;23602;51.084;7.090;2022-10-16T13:51:32;100173.25;;;17.01;100.00
37764;BME280;23602;51.084;7.090;2022-10-16T13:53:58;100181.44;;;16.84;100.00
37764;BME280;23602;51.084;7.090;2022-10-16T13:56:31;100169.78;;;16.67;100.00
37764;BME280;23602;51.084;7.090;2022-10-16T13:59:05;100164.44;;;16.72;100.00
37764;BME280;23602;51.084;7.090;2022-10-16T14:01:41;100162.44;;;16.51;100.00
37764;BME280;23602;51.084;7.090;2022-10-16T14:04:09;100178.06;;;16.44;100.00
37764;BME280;23602;51.084;7.090;2022-10-16T14:06:36;100179.38;;;16.25;100.00
37764;BME280;23602;51.084;7.090;2022-10-16T14:11:48;100204.09;;;16.12;100.00
37764;BME280;23602;51.084;7.090;2022-10-16T14:14:17;100212.47;;;16.10;100.00
37764;BME280;23602;51.084;7.090;2022-10-16T14:16:46;100204.34;;;16.10;100.00
37764;BME280;23602;51.084;7.090;2022-10-16T14:19:35;100226.94;;;16.16;100.00